createdAt,value
2023-08-21T00:01:32.652Z,20.40
2023-08-21T00:03:59.510Z,20.40
2023-08-21T00:06:26.311Z,20.40
2023-08-21T00:08:53.136Z,20.40
2023-08-21T00:11:19.994Z,20.30
2023-08-21T00:13:49.069Z,20.30
2023-08-21T00:16:16.129Z,20.20
2023-08-21T00:18:42.921Z,20.10
2023-08-21T00:21:09.745Z,20.10
2023-08-21T00:23:36.683Z,20.00
2023-08-21T00:26:03.512Z,20.00
2023-08-21T00:28:34.157Z,20.00
2023-08-21T00:31:04.297Z,20.00
2023-08-21T00:33:34.755Z,20.00
2023-08-21T00:36:01.633Z,19.90
2023-08-21T00:38:28.461Z,19.90
2023-08-21T00:40:55.296Z,19.90
2023-08-21T00:43:22.375Z,19.90
2023-08-21T00:45:49.964Z,19.90
2023-08-21T00:48:16.875Z,19.90
2023-08-21T00:50:43.720Z,19.80
2023-08-21T00:53:10.634Z,19.90
2023-08-21T00:55:37.558Z,19.80
2023-08-21T00:58:05.068Z,19.70
2023-08-21T01:00:31.917Z,19.70
2023-08-21T01:02:58.850Z,19.60
2023-08-21T01:05:25.856Z,19.60
2023-08-21T01:08:12.704Z,19.50
2023-08-21T01:11:00.907Z,19.50
2023-08-21T01:13:39.833Z,19.50
2023-08-21T01:16:06.644Z,19.50
2023-08-21T01:18:33.639Z,19.50
2023-08-21T01:21:00.470Z,19.50
2023-08-21T01:23:39.571Z,19.40
2023-08-21T01:26:06.482Z,19.30
2023-08-21T01:28:33.871Z,19.20
2023-08-21T01:31:22.880Z,19.20
2023-08-21T01:33:52.160Z,19.10
2023-08-21T01:36:18.931Z,19.10
2023-08-21T01:38:45.752Z,19.10
2023-08-21T01:41:12.646Z,19.00
2023-08-21T01:43:39.396Z,19.00
2023-08-21T01:46:06.915Z,19.00
2023-08-21T01:48:33.741Z,19.00
2023-08-21T01:51:03.899Z,19.00
2023-08-21T01:53:30.768Z,19.00
2023-08-21T01:55:57.472Z,18.90
2023-08-21T01:58:24.224Z,18.80
2023-08-21T02:00:51.221Z,18.80
2023-08-21T02:03:18.181Z,18.80
2023-08-21T02:05:45.007Z,18.70
2023-08-21T02:08:14.000Z,18.70
2023-08-21T02:10:53.368Z,18.70
2023-08-21T02:13:20.447Z,18.70
2023-08-21T02:15:47.244Z,18.70
2023-08-21T02:18:14.050Z,18.70
2023-08-21T02:20:41.028Z,18.60
2023-08-21T02:23:07.915Z,18.70
2023-08-21T02:25:34.741Z,18.70
2023-08-21T02:28:02.991Z,18.70
2023-08-21T02:30:29.871Z,18.60
2023-08-21T02:32:56.649Z,18.50
2023-08-21T02:35:23.496Z,18.50
2023-08-21T02:37:50.300Z,18.50
2023-08-21T02:40:17.227Z,18.50
2023-08-21T02:42:44.023Z,18.50
2023-08-21T02:45:11.146Z,18.50
2023-08-21T02:47:41.706Z,18.50
2023-08-21T02:50:09.531Z,18.50
2023-08-21T02:52:36.864Z,18.50
2023-08-21T02:55:04.769Z,18.50
2023-08-21T02:57:31.751Z,18.50
2023-08-21T02:59:58.555Z,18.50
2023-08-21T03:02:25.648Z,18.40
2023-08-21T03:04:52.619Z,18.30
2023-08-21T03:07:20.248Z,18.30
2023-08-21T03:09:50.266Z,18.20
2023-08-21T03:12:17.148Z,18.20
2023-08-21T03:14:44.031Z,18.10
2023-08-21T03:17:10.782Z,18.10
2023-08-21T03:19:37.536Z,18.00
2023-08-21T03:22:04.330Z,18.00
2023-08-21T03:24:31.317Z,18.00
2023-08-21T03:26:58.109Z,17.90
2023-08-21T03:29:24.926Z,17.90
2023-08-21T03:31:53.243Z,17.90
2023-08-21T03:34:20.078Z,17.90
2023-08-21T03:36:46.818Z,17.80
2023-08-21T03:39:13.670Z,17.80
2023-08-21T03:41:40.464Z,17.80
2023-08-21T03:44:07.234Z,17.70
2023-08-21T03:46:34.038Z,17.70
2023-08-21T03:49:00.868Z,17.80
2023-08-21T03:51:27.595Z,17.80
2023-08-21T03:53:54.452Z,17.80
2023-08-21T03:56:21.273Z,17.80
2023-08-21T03:58:49.384Z,17.80
2023-08-21T04:01:17.065Z,17.80
2023-08-21T04:03:43.985Z,17.80
2023-08-21T04:06:10.831Z,17.80
2023-08-21T04:08:37.633Z,17.90
2023-08-21T04:11:05.292Z,17.90
2023-08-21T04:13:32.092Z,17.90
2023-08-21T04:15:59.072Z,17.90
2023-08-21T04:18:38.826Z,17.90
2023-08-21T04:21:08.591Z,17.90
2023-08-21T04:23:35.456Z,17.90
2023-08-21T04:26:03.708Z,17.80
2023-08-21T04:28:33.701Z,17.90
2023-08-21T04:31:00.645Z,17.90
2023-08-21T04:33:29.108Z,17.90
2023-08-21T04:35:55.892Z,17.90
2023-08-21T04:38:22.700Z,17.80
2023-08-21T04:40:49.562Z,17.80
2023-08-21T04:43:16.434Z,17.80
2023-08-21T04:45:54.186Z,17.80
2023-08-21T04:48:21.652Z,17.80
2023-08-21T04:50:48.669Z,17.70
2023-08-21T04:53:15.448Z,17.60
2023-08-21T04:55:42.573Z,17.60
2023-08-21T04:58:10.237Z,17.70
2023-08-21T05:00:37.167Z,17.70
2023-08-21T05:03:04.520Z,17.90
2023-08-21T05:05:31.412Z,18.10
2023-08-21T05:07:58.247Z,18.30
2023-08-21T05:10:25.081Z,18.40
2023-08-21T05:12:51.949Z,18.60
2023-08-21T05:15:18.774Z,18.90
2023-08-21T05:17:45.578Z,19.10
2023-08-21T05:20:15.060Z,19.30
2023-08-21T05:22:42.377Z,19.40
2023-08-21T05:25:09.792Z,19.40
2023-08-21T05:27:36.585Z,19.50
2023-08-21T05:30:04.238Z,19.60
2023-08-21T05:32:31.158Z,19.70
2023-08-21T05:34:58.120Z,19.90
2023-08-21T05:37:24.929Z,20.00
2023-08-21T05:39:51.990Z,20.00
2023-08-21T05:42:18.950Z,20.10
2023-08-21T05:44:45.884Z,20.10
2023-08-21T05:47:12.618Z,20.10
2023-08-21T05:49:39.487Z,20.10
2023-08-21T05:52:06.380Z,20.10
2023-08-21T05:54:33.226Z,20.20
2023-08-21T05:57:00.011Z,20.20
2023-08-21T05:59:32.847Z,20.30
2023-08-21T06:01:59.909Z,20.30
2023-08-21T06:04:28.194Z,20.40
2023-08-21T06:06:55.390Z,20.50
2023-08-21T06:09:22.247Z,20.50
2023-08-21T06:11:49.114Z,20.60
2023-08-21T06:14:15.914Z,20.80
2023-08-21T06:16:42.756Z,20.80
2023-08-21T06:19:09.585Z,20.90
2023-08-21T06:21:36.363Z,21.00
2023-08-21T06:24:03.258Z,21.00
2023-08-21T06:26:30.043Z,21.10
2023-08-21T06:28:56.894Z,21.20
2023-08-21T06:31:23.739Z,21.20
2023-08-21T06:33:50.588Z,21.30
2023-08-21T06:36:17.381Z,21.30
2023-08-21T06:38:45.459Z,21.40
2023-08-21T06:41:12.991Z,21.40
2023-08-21T06:43:43.598Z,21.50
2023-08-21T06:46:12.105Z,21.50
2023-08-21T06:48:39.752Z,21.60
2023-08-21T06:51:06.914Z,21.70
2023-08-21T06:53:33.816Z,21.80
2023-08-21T06:56:00.733Z,21.90
2023-08-21T06:58:27.683Z,21.90
2023-08-21T07:00:57.654Z,22.00
2023-08-21T07:03:24.600Z,22.00
2023-08-21T07:05:57.973Z,22.10
2023-08-21T07:08:25.224Z,22.20
2023-08-21T07:10:53.543Z,22.30
2023-08-21T07:13:20.660Z,22.30
2023-08-21T07:15:47.953Z,22.40
2023-08-21T07:18:14.785Z,22.40
2023-08-21T07:20:41.706Z,22.50
2023-08-21T07:23:08.477Z,22.60
2023-08-21T07:25:35.227Z,22.60
2023-08-21T07:28:02.050Z,22.70
2023-08-21T07:30:29.087Z,22.80
2023-08-21T07:32:56.128Z,22.80
2023-08-21T07:35:23.021Z,22.90
2023-08-21T07:37:49.875Z,23.00
2023-08-21T07:40:16.704Z,23.00
2023-08-21T07:42:43.670Z,23.10
2023-08-21T07:45:11.655Z,23.20
2023-08-21T07:47:38.466Z,23.20
2023-08-21T07:50:07.047Z,23.30
2023-08-21T07:52:34.484Z,23.40
2023-08-21T07:55:02.060Z,23.40
2023-08-21T07:57:32.080Z,23.50
2023-08-21T07:59:58.863Z,23.50
2023-08-21T08:02:25.782Z,23.60
2023-08-21T08:04:52.753Z,23.60
2023-08-21T08:07:19.619Z,23.70
2023-08-21T08:09:48.133Z,23.80
2023-08-21T08:12:15.180Z,23.90
2023-08-21T08:14:41.960Z,23.90
2023-08-21T08:17:08.832Z,24.00
2023-08-21T08:19:35.646Z,24.20
2023-08-21T08:22:02.895Z,24.20
2023-08-21T08:24:29.732Z,24.30
2023-08-21T08:26:56.837Z,24.40
2023-08-21T08:29:23.648Z,24.50
2023-08-21T08:31:50.407Z,24.50
2023-08-21T08:34:21.602Z,24.60
2023-08-21T08:36:48.508Z,24.60
2023-08-21T08:39:15.352Z,24.70
2023-08-21T08:41:45.353Z,24.80
2023-08-21T08:44:12.178Z,24.90
2023-08-21T08:46:39.123Z,25.10
2023-08-21T08:49:06.025Z,25.10
2023-08-21T08:51:32.803Z,25.10
2023-08-21T08:53:59.554Z,25.10
2023-08-21T08:56:26.437Z,25.20
2023-08-21T08:58:53.205Z,25.30
2023-08-21T09:01:20.079Z,25.40
2023-08-21T09:03:47.013Z,25.40
2023-08-21T09:06:13.996Z,25.50
2023-08-21T09:08:43.728Z,25.60
2023-08-21T09:11:10.617Z,25.70
2023-08-21T09:13:37.387Z,25.80
2023-08-21T09:16:04.496Z,25.80
2023-08-21T09:18:31.415Z,25.80
2023-08-21T09:20:58.233Z,25.90
2023-08-21T09:23:25.029Z,25.90
2023-08-21T09:25:51.857Z,26.00
2023-08-21T09:28:22.309Z,26.10
2023-08-21T09:30:53.698Z,26.20
2023-08-21T09:33:24.623Z,26.30
2023-08-21T09:35:55.709Z,26.40
2023-08-21T09:38:22.989Z,26.50
2023-08-21T09:40:54.236Z,26.60
2023-08-21T09:43:21.966Z,26.70
2023-08-21T09:45:49.336Z,26.80
2023-08-21T09:48:16.495Z,26.80
2023-08-21T09:50:45.529Z,26.90
2023-08-21T09:53:13.917Z,27.00
2023-08-21T09:55:40.789Z,27.10
2023-08-21T09:58:07.814Z,27.20
2023-08-21T10:00:36.069Z,27.30
2023-08-21T10:03:08.496Z,27.40
2023-08-21T10:05:36.928Z,27.40
2023-08-21T10:08:05.329Z,27.50
2023-08-21T10:10:33.083Z,27.60
2023-08-21T10:13:00.944Z,27.70
2023-08-21T10:15:31.275Z,27.70
2023-08-21T10:17:58.273Z,27.80
2023-08-21T10:20:26.642Z,27.90
2023-08-21T10:22:56.901Z,27.90
2023-08-21T10:25:31.189Z,28.00
2023-08-21T10:28:04.383Z,28.00
2023-08-21T10:30:31.407Z,28.10
2023-08-21T10:32:59.658Z,28.20
2023-08-21T10:35:31.179Z,28.20
2023-08-21T10:38:14.187Z,28.30
2023-08-21T10:40:41.448Z,28.50
2023-08-21T10:43:46.847Z,28.50
2023-08-21T10:46:14.100Z,28.60
2023-08-21T10:48:41.112Z,28.70
2023-08-21T10:51:08.784Z,28.70
2023-08-21T10:53:35.757Z,28.70
2023-08-21T10:56:05.909Z,28.80
2023-08-21T10:58:46.634Z,28.80
2023-08-21T11:01:16.902Z,28.90
2023-08-21T11:03:47.731Z,29.00
2023-08-21T11:06:14.714Z,29.10
2023-08-21T11:08:41.510Z,29.10
2023-08-21T11:11:08.333Z,29.20
2023-08-21T11:13:35.112Z,29.30
2023-08-21T11:16:05.996Z,29.30
2023-08-21T11:18:39.301Z,29.40
2023-08-21T11:21:10.234Z,29.50
2023-08-21T11:23:38.318Z,29.50
2023-08-21T11:26:19.340Z,29.60
2023-08-21T11:28:48.886Z,29.70
2023-08-21T11:31:16.707Z,29.80
2023-08-21T11:33:43.754Z,29.80
2023-08-21T11:36:10.601Z,29.90
2023-08-21T11:38:37.474Z,30.00
2023-08-21T11:41:06.654Z,30.10
2023-08-21T11:43:36.759Z,30.20
2023-08-21T11:46:07.102Z,30.20
2023-08-21T11:48:33.979Z,30.20
2023-08-21T11:51:01.609Z,30.30
2023-08-21T11:53:46.740Z,30.40
2023-08-21T11:56:17.674Z,30.40
2023-08-21T11:58:50.267Z,30.40
2023-08-21T12:01:20.814Z,30.50
2023-08-21T12:03:55.427Z,30.60
2023-08-21T12:06:23.073Z,30.70
2023-08-21T12:08:49.873Z,30.70
2023-08-21T12:11:16.660Z,30.70
2023-08-21T12:13:43.423Z,30.80
2023-08-21T12:16:10.217Z,30.80
2023-08-21T12:18:37.025Z,30.90
2023-08-21T12:21:03.900Z,30.90
2023-08-21T12:23:30.675Z,30.90
2023-08-21T12:25:57.466Z,31.00
2023-08-21T12:28:24.254Z,31.10
2023-08-21T12:30:51.086Z,31.10
2023-08-21T12:33:24.351Z,31.20
2023-08-21T12:35:51.587Z,31.20
2023-08-21T12:38:18.592Z,31.20
2023-08-21T12:40:45.358Z,31.30
2023-08-21T12:43:12.137Z,31.30
2023-08-21T12:45:39.126Z,31.40
2023-08-21T12:48:06.384Z,31.40
2023-08-21T12:50:33.292Z,31.50
2023-08-21T12:53:00.805Z,31.60
2023-08-21T12:55:28.317Z,31.70
2023-08-21T12:57:55.129Z,31.70
2023-08-21T13:00:21.991Z,31.80
2023-08-21T13:02:48.806Z,31.80
2023-08-21T13:05:15.765Z,31.90
2023-08-21T13:07:43.137Z,31.90
2023-08-21T13:10:10.012Z,32.00
2023-08-21T13:12:37.453Z,32.10
2023-08-21T13:15:05.734Z,32.00
2023-08-21T13:17:32.576Z,32.10
2023-08-21T13:19:59.413Z,32.10
2023-08-21T13:22:26.254Z,32.20
2023-08-21T13:24:53.061Z,32.20
2023-08-21T13:27:19.833Z,32.20
2023-08-21T13:29:47.450Z,32.30
2023-08-21T13:32:14.259Z,32.30
2023-08-21T13:34:41.103Z,32.30
2023-08-21T13:37:07.963Z,32.40
2023-08-21T13:39:36.764Z,32.40
2023-08-21T13:42:03.937Z,32.40
2023-08-21T13:44:34.121Z,32.40
2023-08-21T13:47:01.262Z,32.40
2023-08-21T13:49:28.089Z,32.50
2023-08-21T13:51:54.897Z,32.50
2023-08-21T13:54:21.685Z,32.50
2023-08-21T13:56:48.483Z,32.50
2023-08-21T13:59:15.365Z,32.50
2023-08-21T14:01:42.171Z,32.60
2023-08-21T14:04:09.023Z,32.60
2023-08-21T14:06:35.849Z,32.60
2023-08-21T14:09:02.656Z,32.60
2023-08-21T14:11:29.388Z,32.60
2023-08-21T14:13:56.214Z,32.60
2023-08-21T14:16:23.104Z,32.70
2023-08-21T14:18:50.021Z,32.70
2023-08-21T14:21:16.830Z,32.70
2023-08-21T14:23:43.609Z,32.60
2023-08-21T14:26:10.413Z,32.70
2023-08-21T14:28:37.195Z,32.70
2023-08-21T14:31:04.073Z,32.80
2023-08-21T14:33:31.265Z,32.70
2023-08-21T14:35:58.190Z,32.70
2023-08-21T14:38:25.805Z,32.70
2023-08-21T14:40:53.530Z,32.70
2023-08-21T14:43:20.421Z,32.70
2023-08-21T14:45:47.796Z,32.70
2023-08-21T14:48:14.685Z,32.80
2023-08-21T14:50:41.533Z,32.80
2023-08-21T14:53:08.373Z,32.80
2023-08-21T14:55:35.298Z,32.80
2023-08-21T14:58:07.603Z,32.80
2023-08-21T15:00:34.476Z,32.90
2023-08-21T15:03:01.836Z,32.80
2023-08-21T15:05:29.071Z,32.80
2023-08-21T15:07:56.012Z,32.80
2023-08-21T15:10:22.874Z,32.80
2023-08-21T15:12:49.774Z,32.80
2023-08-21T15:15:19.740Z,32.80
2023-08-21T15:17:49.015Z,32.80
2023-08-21T15:20:17.068Z,32.80
2023-08-21T15:22:43.968Z,32.80
2023-08-21T15:25:10.971Z,32.70
2023-08-21T15:27:37.915Z,32.70
2023-08-21T15:30:05.921Z,32.70
2023-08-21T15:32:32.710Z,32.60
2023-08-21T15:35:01.326Z,32.60
2023-08-21T15:37:28.312Z,32.60
2023-08-21T15:39:55.094Z,32.60
2023-08-21T15:42:21.933Z,32.50
2023-08-21T15:44:48.688Z,32.50
2023-08-21T15:47:44.786Z,32.40
2023-08-21T15:50:02.361Z,32.40
2023-08-21T15:52:29.167Z,32.40
2023-08-21T15:54:55.991Z,32.30
2023-08-21T15:57:25.067Z,32.30
2023-08-21T15:59:51.946Z,32.30
2023-08-21T16:02:18.777Z,32.30
2023-08-21T16:04:46.024Z,32.30
2023-08-21T16:07:12.880Z,32.40
2023-08-21T16:09:39.680Z,32.30
2023-08-21T16:12:06.658Z,32.40
2023-08-21T16:14:33.657Z,32.40
2023-08-21T16:17:00.528Z,32.40
2023-08-21T16:19:27.412Z,32.40
2023-08-21T16:21:54.232Z,32.40
2023-08-21T16:24:20.986Z,32.40
2023-08-21T16:26:47.824Z,32.30
2023-08-21T16:29:16.848Z,32.30
2023-08-21T16:31:44.780Z,32.40
2023-08-21T16:34:12.011Z,32.40
2023-08-21T16:36:38.844Z,32.40
2023-08-21T16:39:05.673Z,32.40
2023-08-21T16:41:32.485Z,32.40
2023-08-21T16:43:59.291Z,32.40
2023-08-21T16:46:26.099Z,32.30
2023-08-21T16:48:53.409Z,32.30
2023-08-21T16:51:20.152Z,32.30
2023-08-21T16:53:46.945Z,32.10
2023-08-21T16:56:13.795Z,32.10
2023-08-21T16:58:40.593Z,32.10
2023-08-21T17:01:07.493Z,32.10
2023-08-21T17:03:34.408Z,32.10
2023-08-21T17:06:01.177Z,32.10
2023-08-21T17:08:27.960Z,32.10
2023-08-21T17:10:54.830Z,31.90
2023-08-21T17:13:21.625Z,31.70
2023-08-21T17:15:49.834Z,31.60
2023-08-21T17:18:18.266Z,31.50
2023-08-21T17:20:45.162Z,31.50
2023-08-21T17:23:11.949Z,31.50
2023-08-21T17:25:39.535Z,31.40
2023-08-21T17:28:06.405Z,31.40
2023-08-21T17:30:34.308Z,31.30
2023-08-21T17:33:01.272Z,31.20
2023-08-21T17:35:28.787Z,31.10
2023-08-21T17:37:55.949Z,31.00
2023-08-21T17:40:22.893Z,30.90
2023-08-21T17:42:49.647Z,30.80
2023-08-21T17:45:16.573Z,30.60
2023-08-21T17:47:43.523Z,30.60
2023-08-21T17:50:10.506Z,30.50
2023-08-21T17:52:37.301Z,30.50
2023-08-21T17:55:04.655Z,30.50
2023-08-21T17:57:31.879Z,30.40
2023-08-21T17:59:58.822Z,30.20
2023-08-21T18:02:27.747Z,30.10
2023-08-21T18:04:54.932Z,29.90
2023-08-21T18:07:21.804Z,29.70
2023-08-21T18:09:48.678Z,29.60
2023-08-21T18:12:15.428Z,29.50
2023-08-21T18:14:42.284Z,29.40
2023-08-21T18:17:14.740Z,29.30
2023-08-21T18:19:47.583Z,29.20
2023-08-21T18:22:15.605Z,29.20
2023-08-21T18:24:42.641Z,29.10
2023-08-21T18:27:10.724Z,29.00
2023-08-21T18:29:39.697Z,28.80
2023-08-21T18:32:07.641Z,28.70
2023-08-21T18:34:35.530Z,28.60
2023-08-21T18:37:02.514Z,28.60
2023-08-21T18:39:29.284Z,28.50
2023-08-21T18:41:56.081Z,28.50
2023-08-21T18:44:25.345Z,28.40
2023-08-21T18:46:52.783Z,28.40
2023-08-21T18:49:19.684Z,28.20
2023-08-21T18:51:46.470Z,28.20
2023-08-21T18:54:13.286Z,28.20
2023-08-21T18:56:40.269Z,28.10
2023-08-21T18:59:07.093Z,28.00
2023-08-21T19:01:33.994Z,27.90
2023-08-21T19:04:00.831Z,27.90
2023-08-21T19:06:27.745Z,27.70
2023-08-21T19:08:55.463Z,27.70
2023-08-21T19:11:25.204Z,27.60
2023-08-21T19:13:52.519Z,27.50
2023-08-21T19:16:19.317Z,27.50
2023-08-21T19:18:46.162Z,27.40
2023-08-21T19:21:13.141Z,27.30
2023-08-21T19:23:40.147Z,27.20
2023-08-21T19:26:07.001Z,27.20
2023-08-21T19:28:33.796Z,27.10
2023-08-21T19:31:00.707Z,27.00
2023-08-21T19:33:28.078Z,27.00
2023-08-21T19:35:55.402Z,26.90
2023-08-21T19:38:22.341Z,26.90
2023-08-21T19:40:50.746Z,26.80
2023-08-21T19:43:17.654Z,26.80
2023-08-21T19:45:47.186Z,26.70
2023-08-21T19:48:14.143Z,26.70
2023-08-21T19:50:40.939Z,26.70
2023-08-21T19:53:07.702Z,26.60
2023-08-21T19:55:34.562Z,26.50
2023-08-21T19:58:01.514Z,26.40
2023-08-21T20:00:28.325Z,26.30
2023-08-21T20:02:55.185Z,26.30
2023-08-21T20:05:22.081Z,26.10
2023-08-21T20:07:50.894Z,26.00
2023-08-21T20:10:17.818Z,26.00
2023-08-21T20:12:44.738Z,25.80
2023-08-21T20:15:11.707Z,25.80
2023-08-21T20:17:38.755Z,25.70
2023-08-21T20:20:09.633Z,25.60
2023-08-21T20:22:36.412Z,25.50
2023-08-21T20:25:03.877Z,25.40
2023-08-21T20:27:30.653Z,25.30
2023-08-21T20:29:57.470Z,25.30
2023-08-21T20:32:24.289Z,25.20
2023-08-21T20:34:51.099Z,25.20
2023-08-21T20:37:17.880Z,25.10
2023-08-21T20:39:44.753Z,25.10
2023-08-21T20:42:11.556Z,25.00
2023-08-21T20:44:38.403Z,24.90
2023-08-21T20:47:05.418Z,24.90
2023-08-21T20:49:35.942Z,24.90
2023-08-21T20:52:04.435Z,24.80
2023-08-21T20:54:31.223Z,24.80
2023-08-21T20:56:58.084Z,24.70
2023-08-21T20:59:25.294Z,24.60
2023-08-21T21:01:53.762Z,24.50
2023-08-21T21:04:20.641Z,24.40
2023-08-21T21:06:48.931Z,24.30
2023-08-21T21:09:16.636Z,24.30
2023-08-21T21:11:43.396Z,24.30
2023-08-21T21:14:10.194Z,24.20
2023-08-21T21:16:38.997Z,24.20
2023-08-21T21:19:07.948Z,24.10
2023-08-21T21:21:34.693Z,24.00
2023-08-21T21:24:01.608Z,23.90
2023-08-21T21:26:28.520Z,23.80
2023-08-21T21:28:55.324Z,23.90
2023-08-21T21:31:22.141Z,23.80
2023-08-21T21:33:53.657Z,23.80
2023-08-21T21:36:20.798Z,23.80
2023-08-21T21:38:47.649Z,23.70
2023-08-21T21:41:14.481Z,23.70
2023-08-21T21:43:41.305Z,23.70
2023-08-21T21:46:10.329Z,23.60
2023-08-21T21:48:37.273Z,23.60
2023-08-21T21:51:04.073Z,23.50
2023-08-21T21:53:30.932Z,23.40
2023-08-21T21:55:57.872Z,23.30
2023-08-21T21:58:25.590Z,23.30
2023-08-21T22:00:52.385Z,23.30
2023-08-21T22:03:19.252Z,23.20
2023-08-21T22:05:46.122Z,23.20
2023-08-21T22:08:12.946Z,23.10
2023-08-21T22:10:39.749Z,23.10
2023-08-21T22:13:07.208Z,23.00
2023-08-21T22:15:34.832Z,23.00
2023-08-21T22:18:02.405Z,23.00
2023-08-21T22:20:29.353Z,23.00
2023-08-21T22:22:56.229Z,22.90
2023-08-21T22:25:23.153Z,22.80
2023-08-21T22:27:50.163Z,22.80
2023-08-21T22:30:17.034Z,22.70
2023-08-21T22:32:44.206Z,22.70
2023-08-21T22:35:11.107Z,22.60
2023-08-21T22:37:38.172Z,22.50
2023-08-21T22:40:06.346Z,22.60
2023-08-21T22:42:33.855Z,22.50
2023-08-21T22:45:01.497Z,22.50
2023-08-21T22:47:28.361Z,22.40
2023-08-21T22:49:55.189Z,22.30
2023-08-21T22:52:21.964Z,22.30
2023-08-21T22:54:48.718Z,22.20
2023-08-21T22:57:15.484Z,22.20
2023-08-21T22:59:42.271Z,22.20
2023-08-21T23:02:09.066Z,22.20
2023-08-21T23:04:35.854Z,22.10
2023-08-21T23:07:02.677Z,22.10
2023-08-21T23:09:30.104Z,22.00
2023-08-21T23:11:56.970Z,22.00
2023-08-21T23:14:23.741Z,22.00
2023-08-21T23:16:50.503Z,22.00
2023-08-21T23:19:17.806Z,22.00
2023-08-21T23:21:45.315Z,21.90
2023-08-21T23:24:12.253Z,21.90
2023-08-21T23:26:39.076Z,21.80
2023-08-21T23:29:05.938Z,21.80
2023-08-21T23:31:33.305Z,21.80
2023-08-21T23:34:00.691Z,21.70
2023-08-21T23:36:27.829Z,21.60
2023-08-21T23:38:55.244Z,21.60
2023-08-21T23:41:22.102Z,21.50
2023-08-21T23:43:49.457Z,21.50
2023-08-21T23:46:16.448Z,21.40
2023-08-21T23:48:43.423Z,21.40
2023-08-21T23:51:10.791Z,21.30
2023-08-21T23:53:37.631Z,21.40
2023-08-21T23:56:05.888Z,21.40
2023-08-21T23:58:32.714Z,21.30
